sensor_id;sensor_type;location;lat;lon;timestamp;P1;durP1;ratioP1;P2;durP2;ratioP2
56752;SDS011;42627;42.646;23.642;2023-03-19T00:01:35;11.43;;;6.35;;
56752;SDS011;42627;42.646;23.642;2023-03-19T00:03:47;14.18;;;7.50;;
56752;SDS011;42627;42.646;23.642;2023-03-19T00:05:51;16.30;;;6.38;;
56752;SDS011;42627;42.646;23.642;2023-03-19T00:07:52;17.83;;;7.05;;
56752;SDS011;42627;42.646;23.642;2023-03-19T00:09:53;16.35;;;7.28;;
56752;SDS011;42627;42.646;23.642;2023-03-19T00:11:54;15.02;;;8.10;;
56752;SDS011;42627;42.646;23.642;2023-03-19T00:19:23;21.73;;;10.27;;
56752;SDS011;42627;42.646;23.642;2023-03-19T00:21:24;19.25;;;8.15;;
56752;SDS011;42627;42.646;23.642;2023-03-19T00:23:25;19.52;;;8.10;;
56752;SDS011;42627;42.646;23.642;2023-03-19T00:25:26;21.45;;;8.38;;
56752;SDS011;42627;42.646;23.642;2023-03-19T00:27:26;11.90;;;4.47;;
56752;SDS011;42627;42.646;23.642;2023-03-19T00:29:27;13.05;;;4.80;;
56752;SDS011;42627;42.646;23.642;2023-03-19T00:31:28;12.25;;;4.00;;
56752;SDS011;42627;42.646;23.642;2023-03-19T00:33:34;10.63;;;3.85;;
56752;SDS011;42627;42.646;23.642;2023-03-19T00:37:35;6.90;;;2.95;;
56752;SDS011;42627;42.646;23.642;2023-03-19T00:39:36;11.80;;;4.13;;
56752;SDS011;42627;42.646;23.642;2023-03-19T00:41:37;7.82;;;2.92;;
56752;SDS011;42627;42.646;23.642;2023-03-19T00:46:21;8.63;;;3.85;;
56752;SDS011;42627;42.646;23.642;2023-03-19T00:48:28;5.85;;;3.28;;
56752;SDS011;42627;42.646;23.642;2023-03-19T00:50:28;8.90;;;3.75;;
56752;SDS011;42627;42.646;23.642;2023-03-19T00:52:29;11.55;;;3.90;;
56752;SDS011;42627;42.646;23.642;2023-03-19T00:54:30;7.78;;;3.70;;
56752;SDS011;42627;42.646;23.642;2023-03-19T00:56:32;8.75;;;3.58;;
56752;SDS011;42627;42.646;23.642;2023-03-19T00:58:32;8.68;;;3.10;;
56752;SDS011;42627;42.646;23.642;2023-03-19T01:00:34;7.38;;;2.95;;
56752;SDS011;42627;42.646;23.642;2023-03-19T01:04:47;7.25;;;3.08;;
56752;SDS011;42627;42.646;23.642;2023-03-19T01:06:48;7.13;;;2.30;;
56752;SDS011;42627;42.646;23.642;2023-03-19T01:08:49;6.57;;;2.53;;
56752;SDS011;42627;42.646;23.642;2023-03-19T01:10:49;4.53;;;2.47;;
56752;SDS011;42627;42.646;23.642;2023-03-19T01:15:34;7.05;;;2.72;;
56752;SDS011;42627;42.646;23.642;2023-03-19T01:17:48;3.90;;;1.70;;
56752;SDS011;42627;42.646;23.642;2023-03-19T01:19:49;6.43;;;3.10;;
56752;SDS011;42627;42.646;23.642;2023-03-19T01:21:50;4.97;;;2.35;;
56752;SDS011;42627;42.646;23.642;2023-03-19T01:23:51;5.53;;;2.42;;
56752;SDS011;42627;42.646;23.642;2023-03-19T01:25:52;4.65;;;2.50;;
56752;SDS011;42627;42.646;23.642;2023-03-19T01:27:52;4.78;;;2.63;;
56752;SDS011;42627;42.646;23.642;2023-03-19T01:29:55;4.63;;;2.30;;
56752;SDS011;42627;42.646;23.642;2023-03-19T01:32:14;5.38;;;2.83;;
56752;SDS011;42627;42.646;23.642;2023-03-19T01:34:20;6.75;;;2.72;;
56752;SDS011;42627;42.646;23.642;2023-03-19T01:36:28;6.38;;;2.45;;
56752;SDS011;42627;42.646;23.642;2023-03-19T01:38:31;7.63;;;3.22;;
56752;SDS011;42627;42.646;23.642;2023-03-19T01:40:35;6.60;;;3.03;;
56752;SDS011;42627;42.646;23.642;2023-03-19T01:45:37;13.20;;;5.43;;
56752;SDS011;42627;42.646;23.642;2023-03-19T01:47:41;13.88;;;5.57;;
56752;SDS011;42627;42.646;23.642;2023-03-19T01:49:44;11.05;;;5.10;;
56752;SDS011;42627;42.646;23.642;2023-03-19T01:51:50;12.18;;;5.32;;
56752;SDS011;42627;42.646;23.642;2023-03-19T01:53:53;7.70;;;3.83;;
56752;SDS011;42627;42.646;23.642;2023-03-19T01:56:06;8.63;;;4.72;;
56752;SDS011;42627;42.646;23.642;2023-03-19T01:58:11;12.98;;;5.38;;
56752;SDS011;42627;42.646;23.642;2023-03-19T02:00:12;7.97;;;3.25;;
56752;SDS011;42627;42.646;23.642;2023-03-19T02:04:26;5.50;;;3.28;;
56752;SDS011;42627;42.646;23.642;2023-03-19T02:06:27;5.68;;;2.55;;
56752;SDS011;42627;42.646;23.642;2023-03-19T02:08:29;3.50;;;2.22;;
56752;SDS011;42627;42.646;23.642;2023-03-19T02:10:31;5.18;;;2.70;;
56752;SDS011;42627;42.646;23.642;2023-03-19T02:15:07;9.02;;;2.65;;
56752;SDS011;42627;42.646;23.642;2023-03-19T02:17:14;6.97;;;2.83;;
56752;SDS011;42627;42.646;23.642;2023-03-19T02:19:19;10.88;;;3.15;;
56752;SDS011;42627;42.646;23.642;2023-03-19T02:21:28;4.25;;;2.42;;
56752;SDS011;42627;42.646;23.642;2023-03-19T02:26:06;3.20;;;1.92;;
56752;SDS011;42627;42.646;23.642;2023-03-19T02:28:16;7.13;;;3.10;;
56752;SDS011;42627;42.646;23.642;2023-03-19T02:30:30;4.18;;;2.20;;
56752;SDS011;42627;42.646;23.642;2023-03-19T02:32:32;3.55;;;2.30;;
56752;SDS011;42627;42.646;23.642;2023-03-19T02:34:34;4.55;;;2.80;;
56752;SDS011;42627;42.646;23.642;2023-03-19T02:36:39;5.80;;;2.83;;
56752;SDS011;42627;42.646;23.642;2023-03-19T02:38:43;3.28;;;2.20;;
56752;SDS011;42627;42.646;23.642;2023-03-19T02:40:59;6.18;;;2.85;;
56752;SDS011;42627;42.646;23.642;2023-03-19T02:45:49;5.80;;;2.70;;
56752;SDS011;42627;42.646;23.642;2023-03-19T02:47:50;7.03;;;2.72;;
56752;SDS011;42627;42.646;23.642;2023-03-19T02:49:51;8.35;;;3.08;;
56752;SDS011;42627;42.646;23.642;2023-03-19T02:51:52;5.65;;;3.03;;
56752;SDS011;42627;42.646;23.642;2023-03-19T02:53:52;10.27;;;2.78;;
56752;SDS011;42627;42.646;23.642;2023-03-19T02:55:53;7.57;;;3.25;;
56752;SDS011;42627;42.646;23.642;2023-03-19T02:57:54;5.65;;;2.40;;
56752;SDS011;42627;42.646;23.642;2023-03-19T03:00:01;5.63;;;2.65;;
56752;SDS011;42627;42.646;23.642;2023-03-19T03:02:03;6.35;;;1.92;;
56752;SDS011;42627;42.646;23.642;2023-03-19T03:04:04;6.13;;;2.78;;
56752;SDS011;42627;42.646;23.642;2023-03-19T03:06:05;9.48;;;2.67;;
56752;SDS011;42627;42.646;23.642;2023-03-19T03:08:06;4.63;;;2.30;;
56752;SDS011;42627;42.646;23.642;2023-03-19T03:10:22;6.18;;;2.63;;
56752;SDS011;42627;42.646;23.642;2023-03-19T03:17:16;4.53;;;2.78;;
56752;SDS011;42627;42.646;23.642;2023-03-19T03:19:16;5.57;;;2.67;;
56752;SDS011;42627;42.646;23.642;2023-03-19T03:21:17;5.38;;;3.20;;
56752;SDS011;42627;42.646;23.642;2023-03-19T03:23:20;5.90;;;3.47;;
56752;SDS011;42627;42.646;23.642;2023-03-19T03:25:21;8.73;;;4.25;;
56752;SDS011;42627;42.646;23.642;2023-03-19T03:27:21;7.97;;;3.42;;
56752;SDS011;42627;42.646;23.642;2023-03-19T03:29:22;8.55;;;4.10;;
56752;SDS011;42627;42.646;23.642;2023-03-19T03:31:22;7.22;;;3.75;;
56752;SDS011;42627;42.646;23.642;2023-03-19T03:33:23;7.68;;;3.45;;
56752;SDS011;42627;42.646;23.642;2023-03-19T03:35:24;5.68;;;2.63;;
56752;SDS011;42627;42.646;23.642;2023-03-19T03:37:26;7.95;;;3.25;;
56752;SDS011;42627;42.646;23.642;2023-03-19T03:39:26;10.00;;;2.80;;
56752;SDS011;42627;42.646;23.642;2023-03-19T03:41:27;6.72;;;2.55;;
56752;SDS011;42627;42.646;23.642;2023-03-19T03:43:28;6.57;;;2.75;;
56752;SDS011;42627;42.646;23.642;2023-03-19T03:45:28;6.57;;;2.90;;
56752;SDS011;42627;42.646;23.642;2023-03-19T03:47:29;6.70;;;2.88;;
56752;SDS011;42627;42.646;23.642;2023-03-19T03:49:30;7.03;;;3.13;;
56752;SDS011;42627;42.646;23.642;2023-03-19T03:51:31;6.10;;;2.88;;
56752;SDS011;42627;42.646;23.642;2023-03-19T03:53:31;4.55;;;2.47;;
56752;SDS011;42627;42.646;23.642;2023-03-19T03:55:32;6.88;;;2.80;;
56752;SDS011;42627;42.646;23.642;2023-03-19T03:57:33;3.47;;;2.20;;
56752;SDS011;42627;42.646;23.642;2023-03-19T03:59:40;11.63;;;4.30;;
56752;SDS011;42627;42.646;23.642;2023-03-19T04:01:44;18.90;;;8.18;;
56752;SDS011;42627;42.646;23.642;2023-03-19T04:03:44;29.02;;;12.15;;
56752;SDS011;42627;42.646;23.642;2023-03-19T04:05:45;18.60;;;7.70;;
56752;SDS011;42627;42.646;23.642;2023-03-19T04:07:46;7.15;;;4.45;;
56752;SDS011;42627;42.646;23.642;2023-03-19T04:09:46;9.80;;;4.72;;
56752;SDS011;42627;42.646;23.642;2023-03-19T04:11:48;6.63;;;3.50;;
56752;SDS011;42627;42.646;23.642;2023-03-19T04:13:48;6.15;;;3.92;;
56752;SDS011;42627;42.646;23.642;2023-03-19T04:15:52;6.57;;;3.65;;
56752;SDS011;42627;42.646;23.642;2023-03-19T04:17:55;8.25;;;4.30;;
56752;SDS011;42627;42.646;23.642;2023-03-19T04:19:55;7.95;;;3.58;;
56752;SDS011;42627;42.646;23.642;2023-03-19T04:21:56;11.70;;;4.32;;
56752;SDS011;42627;42.646;23.642;2023-03-19T04:23:58;8.52;;;4.40;;
56752;SDS011;42627;42.646;23.642;2023-03-19T04:26:17;6.45;;;3.05;;
56752;SDS011;42627;42.646;23.642;2023-03-19T04:28:30;5.95;;;2.92;;
56752;SDS011;42627;42.646;23.642;2023-03-19T04:34:52;11.30;;;5.20;;
56752;SDS011;42627;42.646;23.642;2023-03-19T04:36:53;10.02;;;6.28;;
56752;SDS011;42627;42.646;23.642;2023-03-19T04:38:59;14.27;;;6.68;;
56752;SDS011;42627;42.646;23.642;2023-03-19T04:41:01;32.90;;;11.70;;
56752;SDS011;42627;42.646;23.642;2023-03-19T04:43:03;30.98;;;11.25;;
56752;SDS011;42627;42.646;23.642;2023-03-19T04:47:15;16.13;;;7.22;;
56752;SDS011;42627;42.646;23.642;2023-03-19T04:49:15;20.10;;;6.68;;
56752;SDS011;42627;42.646;23.642;2023-03-19T04:51:16;14.25;;;4.68;;
56752;SDS011;42627;42.646;23.642;2023-03-19T04:53:17;13.98;;;5.25;;
56752;SDS011;42627;42.646;23.642;2023-03-19T04:57:59;7.47;;;4.20;;
56752;SDS011;42627;42.646;23.642;2023-03-19T05:00:05;14.15;;;5.93;;
56752;SDS011;42627;42.646;23.642;2023-03-19T05:02:07;10.18;;;5.35;;
56752;SDS011;42627;42.646;23.642;2023-03-19T05:06:18;6.43;;;3.42;;
56752;SDS011;42627;42.646;23.642;2023-03-19T05:08:19;9.13;;;3.55;;
56752;SDS011;42627;42.646;23.642;2023-03-19T05:10:20;12.77;;;5.28;;
56752;SDS011;42627;42.646;23.642;2023-03-19T05:12:21;44.08;;;10.90;;
56752;SDS011;42627;42.646;23.642;2023-03-19T05:14:28;28.05;;;8.35;;
56752;SDS011;42627;42.646;23.642;2023-03-19T05:16:29;10.88;;;4.75;;
56752;SDS011;42627;42.646;23.642;2023-03-19T05:18:30;7.72;;;3.33;;
56752;SDS011;42627;42.646;23.642;2023-03-19T05:20:32;8.70;;;3.53;;
56752;SDS011;42627;42.646;23.642;2023-03-19T05:22:34;11.63;;;4.97;;
56752;SDS011;42627;42.646;23.642;2023-03-19T05:24:44;9.77;;;4.07;;
56752;SDS011;42627;42.646;23.642;2023-03-19T05:29:22;7.97;;;4.20;;
56752;SDS011;42627;42.646;23.642;2023-03-19T05:31:23;7.68;;;3.25;;
56752;SDS011;42627;42.646;23.642;2023-03-19T05:33:24;10.27;;;3.88;;
56752;SDS011;42627;42.646;23.642;2023-03-19T05:35:26;11.38;;;4.07;;
56752;SDS011;42627;42.646;23.642;2023-03-19T05:37:28;13.70;;;5.03;;
56752;SDS011;42627;42.646;23.642;2023-03-19T05:39:29;9.13;;;3.83;;
56752;SDS011;42627;42.646;23.642;2023-03-19T05:41:30;15.98;;;4.60;;
56752;SDS011;42627;42.646;23.642;2023-03-19T05:43:31;10.60;;;3.95;;
56752;SDS011;42627;42.646;23.642;2023-03-19T05:45:39;11.43;;;5.53;;
56752;SDS011;42627;42.646;23.642;2023-03-19T05:47:41;9.80;;;3.85;;
56752;SDS011;42627;42.646;23.642;2023-03-19T05:49:43;7.43;;;3.13;;
56752;SDS011;42627;42.646;23.642;2023-03-19T05:51:44;5.25;;;3.33;;
56752;SDS011;42627;42.646;23.642;2023-03-19T05:53:45;5.60;;;3.15;;
56752;SDS011;42627;42.646;23.642;2023-03-19T05:58:19;6.18;;;3.38;;
56752;SDS011;42627;42.646;23.642;2023-03-19T06:00:25;8.75;;;3.55;;
56752;SDS011;42627;42.646;23.642;2023-03-19T06:02:26;7.22;;;3.17;;
56752;SDS011;42627;42.646;23.642;2023-03-19T06:04:27;8.38;;;3.20;;
56752;SDS011;42627;42.646;23.642;2023-03-19T06:06:29;7.65;;;3.08;;
56752;SDS011;42627;42.646;23.642;2023-03-19T06:08:30;7.13;;;3.97;;
56752;SDS011;42627;42.646;23.642;2023-03-19T06:10:33;5.40;;;2.80;;
56752;SDS011;42627;42.646;23.642;2023-03-19T06:12:35;7.25;;;2.33;;
56752;SDS011;42627;42.646;23.642;2023-03-19T06:16:43;6.63;;;2.85;;
56752;SDS011;42627;42.646;23.642;2023-03-19T06:18:45;4.88;;;2.50;;
56752;SDS011;42627;42.646;23.642;2023-03-19T06:20:46;4.25;;;2.38;;
56752;SDS011;42627;42.646;23.642;2023-03-19T06:22:47;5.25;;;2.42;;
56752;SDS011;42627;42.646;23.642;2023-03-19T06:24:49;5.45;;;2.58;;
56752;SDS011;42627;42.646;23.642;2023-03-19T06:29:22;4.82;;;2.58;;
56752;SDS011;42627;42.646;23.642;2023-03-19T06:31:23;6.20;;;2.17;;
56752;SDS011;42627;42.646;23.642;2023-03-19T06:33:24;4.93;;;2.45;;
56752;SDS011;42627;42.646;23.642;2023-03-19T06:35:26;4.18;;;2.10;;
56752;SDS011;42627;42.646;23.642;2023-03-19T06:37:27;7.88;;;2.35;;
56752;SDS011;42627;42.646;23.642;2023-03-19T06:39:29;4.13;;;2.58;;
56752;SDS011;42627;42.646;23.642;2023-03-19T06:41:30;5.88;;;2.58;;
56752;SDS011;42627;42.646;23.642;2023-03-19T06:43:31;12.85;;;3.00;;
56752;SDS011;42627;42.646;23.642;2023-03-19T06:45:35;5.13;;;2.70;;
56752;SDS011;42627;42.646;23.642;2023-03-19T06:47:39;8.07;;;2.78;;
56752;SDS011;42627;42.646;23.642;2023-03-19T06:49:40;6.78;;;3.20;;
56752;SDS011;42627;42.646;23.642;2023-03-19T06:51:44;6.15;;;2.53;;
56752;SDS011;42627;42.646;23.642;2023-03-19T06:53:45;9.07;;;3.28;;
56752;SDS011;42627;42.646;23.642;2023-03-19T06:55:49;9.38;;;3.28;;
56752;SDS011;42627;42.646;23.642;2023-03-19T06:57:50;7.15;;;3.95;;
56752;SDS011;42627;42.646;23.642;2023-03-19T06:59:51;6.63;;;3.25;;
56752;SDS011;42627;42.646;23.642;2023-03-19T07:01:57;8.88;;;3.65;;
56752;SDS011;42627;42.646;23.642;2023-03-19T07:03:58;9.65;;;3.95;;
56752;SDS011;42627;42.646;23.642;2023-03-19T07:05:59;6.95;;;3.45;;
56752;SDS011;42627;42.646;23.642;2023-03-19T07:08:01;5.65;;;2.90;;
56752;SDS011;42627;42.646;23.642;2023-03-19T07:10:10;8.25;;;3.15;;
56752;SDS011;42627;42.646;23.642;2023-03-19T07:12:14;4.97;;;2.85;;
56752;SDS011;42627;42.646;23.642;2023-03-19T07:14:20;7.53;;;3.38;;
56752;SDS011;42627;42.646;23.642;2023-03-19T07:16:21;8.02;;;3.08;;
56752;SDS011;42627;42.646;23.642;2023-03-19T07:18:23;6.25;;;3.22;;
56752;SDS011;42627;42.646;23.642;2023-03-19T07:20:24;6.38;;;3.28;;
56752;SDS011;42627;42.646;23.642;2023-03-19T07:22:25;7.18;;;3.15;;
56752;SDS011;42627;42.646;23.642;2023-03-19T07:24:26;8.95;;;3.65;;
56752;SDS011;42627;42.646;23.642;2023-03-19T07:26:27;7.63;;;2.88;;
56752;SDS011;42627;42.646;23.642;2023-03-19T07:28:28;7.25;;;3.08;;
56752;SDS011;42627;42.646;23.642;2023-03-19T07:30:29;8.75;;;3.83;;
56752;SDS011;42627;42.646;23.642;2023-03-19T07:32:30;7.38;;;3.80;;
56752;SDS011;42627;42.646;23.642;2023-03-19T07:34:32;8.02;;;3.65;;
56752;SDS011;42627;42.646;23.642;2023-03-19T07:36:35;6.90;;;3.22;;
56752;SDS011;42627;42.646;23.642;2023-03-19T07:38:36;9.23;;;4.22;;
56752;SDS011;42627;42.646;23.642;2023-03-19T07:40:37;8.77;;;3.42;;
56752;SDS011;42627;42.646;23.642;2023-03-19T07:42:38;12.65;;;4.28;;
56752;SDS011;42627;42.646;23.642;2023-03-19T07:47:30;7.35;;;3.38;;
56752;SDS011;42627;42.646;23.642;2023-03-19T07:49:46;7.10;;;4.13;;
56752;SDS011;42627;42.646;23.642;2023-03-19T07:51:46;7.72;;;4.28;;
56752;SDS011;42627;42.646;23.642;2023-03-19T07:53:47;12.05;;;4.55;;
56752;SDS011;42627;42.646;23.642;2023-03-19T07:55:48;9.45;;;3.92;;
56752;SDS011;42627;42.646;23.642;2023-03-19T07:57:49;10.15;;;4.10;;
56752;SDS011;42627;42.646;23.642;2023-03-19T07:59:52;9.13;;;4.20;;
56752;SDS011;42627;42.646;23.642;2023-03-19T08:01:53;10.23;;;4.15;;
56752;SDS011;42627;42.646;23.642;2023-03-19T08:03:57;8.00;;;3.70;;
56752;SDS011;42627;42.646;23.642;2023-03-19T08:06:01;9.07;;;3.67;;
56752;SDS011;42627;42.646;23.642;2023-03-19T08:08:02;13.57;;;3.95;;
56752;SDS011;42627;42.646;23.642;2023-03-19T08:10:06;11.25;;;4.03;;
56752;SDS011;42627;42.646;23.642;2023-03-19T08:12:07;9.18;;;3.90;;
56752;SDS011;42627;42.646;23.642;2023-03-19T08:14:08;6.82;;;3.08;;
56752;SDS011;42627;42.646;23.642;2023-03-19T08:16:09;7.13;;;3.60;;
56752;SDS011;42627;42.646;23.642;2023-03-19T08:18:10;7.57;;;4.00;;
56752;SDS011;42627;42.646;23.642;2023-03-19T08:20:14;9.88;;;4.03;;
56752;SDS011;42627;42.646;23.642;2023-03-19T08:22:15;8.55;;;3.65;;
56752;SDS011;42627;42.646;23.642;2023-03-19T08:24:17;7.30;;;3.35;;
56752;SDS011;42627;42.646;23.642;2023-03-19T08:26:20;8.75;;;3.60;;
56752;SDS011;42627;42.646;23.642;2023-03-19T08:28:21;6.85;;;2.53;;
56752;SDS011;42627;42.646;23.642;2023-03-19T08:30:22;7.85;;;3.42;;
56752;SDS011;42627;42.646;23.642;2023-03-19T08:32:23;8.48;;;3.90;;
56752;SDS011;42627;42.646;23.642;2023-03-19T08:34:26;7.20;;;3.50;;
56752;SDS011;42627;42.646;23.642;2023-03-19T08:36:28;7.20;;;3.40;;
56752;SDS011;42627;42.646;23.642;2023-03-19T08:38:29;8.60;;;3.55;;
56752;SDS011;42627;42.646;23.642;2023-03-19T08:40:30;7.25;;;3.35;;
56752;SDS011;42627;42.646;23.642;2023-03-19T08:42:32;8.80;;;3.97;;
56752;SDS011;42627;42.646;23.642;2023-03-19T08:44:33;7.82;;;3.70;;
56752;SDS011;42627;42.646;23.642;2023-03-19T08:46:34;7.65;;;3.65;;
56752;SDS011;42627;42.646;23.642;2023-03-19T08:48:36;7.70;;;3.53;;
56752;SDS011;42627;42.646;23.642;2023-03-19T08:50:41;9.45;;;4.75;;
56752;SDS011;42627;42.646;23.642;2023-03-19T08:52:42;13.07;;;4.97;;
56752;SDS011;42627;42.646;23.642;2023-03-19T08:54:44;9.38;;;4.55;;
56752;SDS011;42627;42.646;23.642;2023-03-19T08:56:45;9.45;;;3.88;;
56752;SDS011;42627;42.646;23.642;2023-03-19T08:58:46;6.75;;;2.90;;
56752;SDS011;42627;42.646;23.642;2023-03-19T09:03:59;8.52;;;3.63;;
56752;SDS011;42627;42.646;23.642;2023-03-19T09:06:00;8.13;;;3.33;;
56752;SDS011;42627;42.646;23.642;2023-03-19T09:08:02;7.60;;;3.17;;
56752;SDS011;42627;42.646;23.642;2023-03-19T09:10:03;7.15;;;3.47;;
56752;SDS011;42627;42.646;23.642;2023-03-19T09:12:04;7.82;;;3.90;;
56752;SDS011;42627;42.646;23.642;2023-03-19T09:14:06;8.43;;;3.88;;
56752;SDS011;42627;42.646;23.642;2023-03-19T09:16:07;7.50;;;3.15;;
56752;SDS011;42627;42.646;23.642;2023-03-19T09:18:07;8.63;;;3.67;;
56752;SDS011;42627;42.646;23.642;2023-03-19T09:28:51;6.10;;;3.03;;
56752;SDS011;42627;42.646;23.642;2023-03-19T09:34:02;7.25;;;2.58;;
56752;SDS011;42627;42.646;23.642;2023-03-19T09:38:44;8.55;;;3.28;;
56752;SDS011;42627;42.646;23.642;2023-03-19T09:40:47;7.15;;;3.08;;
56752;SDS011;42627;42.646;23.642;2023-03-19T09:44:52;6.97;;;3.38;;
56752;SDS011;42627;42.646;23.642;2023-03-19T09:46:57;8.45;;;3.15;;
56752;SDS011;42627;42.646;23.642;2023-03-19T09:49:02;8.75;;;3.40;;
56752;SDS011;42627;42.646;23.642;2023-03-19T09:51:04;6.45;;;3.08;;
56752;SDS011;42627;42.646;23.642;2023-03-19T09:55:18;8.05;;;3.30;;
56752;SDS011;42627;42.646;23.642;2023-03-19T09:57:23;6.95;;;3.25;;
56752;SDS011;42627;42.646;23.642;2023-03-19T09:59:25;5.80;;;3.03;;
56752;SDS011;42627;42.646;23.642;2023-03-19T10:01:32;7.28;;;2.97;;
56752;SDS011;42627;42.646;23.642;2023-03-19T10:05:55;9.75;;;3.30;;
56752;SDS011;42627;42.646;23.642;2023-03-19T10:08:02;7.93;;;3.20;;
56752;SDS011;42627;42.646;23.642;2023-03-19T10:59:42;8.82;;;3.65;;
56752;SDS011;42627;42.646;23.642;2023-03-19T11:05:51;9.43;;;3.47;;
56752;SDS011;42627;42.646;23.642;2023-03-19T11:08:03;5.78;;;2.95;;
56752;SDS011;42627;42.646;23.642;2023-03-19T11:10:12;10.43;;;3.45;;
56752;SDS011;42627;42.646;23.642;2023-03-19T11:12:31;8.40;;;3.42;;
56752;SDS011;42627;42.646;23.642;2023-03-19T11:14:49;8.48;;;3.55;;
56752;SDS011;42627;42.646;23.642;2023-03-19T11:16:54;5.35;;;2.97;;
56752;SDS011;42627;42.646;23.642;2023-03-19T11:20:58;5.03;;;2.67;;
56752;SDS011;42627;42.646;23.642;2023-03-19T11:23:15;4.97;;;2.38;;
56752;SDS011;42627;42.646;23.642;2023-03-19T11:25:28;6.88;;;2.58;;
56752;SDS011;42627;42.646;23.642;2023-03-19T11:28:19;5.38;;;2.97;;
56752;SDS011;42627;42.646;23.642;2023-03-19T11:30:16;5.40;;;2.42;;
56752;SDS011;42627;42.646;23.642;2023-03-19T11:43:39;5.65;;;2.33;;
56752;SDS011;42627;42.646;23.642;2023-03-19T11:46:28;5.22;;;2.40;;
56752;SDS011;42627;42.646;23.642;2023-03-19T11:48:15;3.85;;;1.83;;
56752;SDS011;42627;42.646;23.642;2023-03-19T11:53:26;5.15;;;2.53;;
56752;SDS011;42627;42.646;23.642;2023-03-19T12:02:32;4.68;;;2.17;;
56752;SDS011;42627;42.646;23.642;2023-03-19T12:04:48;6.03;;;2.55;;
56752;SDS011;42627;42.646;23.642;2023-03-19T12:11:20;4.88;;;2.13;;
56752;SDS011;42627;42.646;23.642;2023-03-19T12:30:10;3.88;;;1.35;;
56752;SDS011;42627;42.646;23.642;2023-03-19T12:32:18;3.72;;;1.90;;
56752;SDS011;42627;42.646;23.642;2023-03-19T12:34:26;5.28;;;2.38;;
56752;SDS011;42627;42.646;23.642;2023-03-19T12:36:30;4.13;;;2.03;;
56752;SDS011;42627;42.646;23.642;2023-03-19T12:41:10;3.45;;;1.20;;
56752;SDS011;42627;42.646;23.642;2023-03-19T12:43:19;2.63;;;1.30;;
56752;SDS011;42627;42.646;23.642;2023-03-19T12:45:25;2.72;;;1.25;;
56752;SDS011;42627;42.646;23.642;2023-03-19T12:47:30;2.63;;;1.40;;
56752;SDS011;42627;42.646;23.642;2023-03-19T12:49:39;3.70;;;1.30;;
56752;SDS011;42627;42.646;23.642;2023-03-19T12:51:45;2.72;;;1.48;;
56752;SDS011;42627;42.646;23.642;2023-03-19T13:09:49;5.10;;;2.28;;
56752;SDS011;42627;42.646;23.642;2023-03-19T13:14:17;2.80;;;1.60;;
56752;SDS011;42627;42.646;23.642;2023-03-19T13:18:28;2.72;;;1.15;;
56752;SDS011;42627;42.646;23.642;2023-03-19T13:27:51;3.88;;;1.65;;
56752;SDS011;42627;42.646;23.642;2023-03-19T13:32:07;2.67;;;1.63;;
56752;SDS011;42627;42.646;23.642;2023-03-19T13:36:17;2.28;;;1.10;;
56752;SDS011;42627;42.646;23.642;2023-03-19T13:38:23;2.53;;;1.10;;
56752;SDS011;42627;42.646;23.642;2023-03-19T13:40:41;3.63;;;1.30;;
56752;SDS011;42627;42.646;23.642;2023-03-19T13:44:59;4.10;;;1.77;;
56752;SDS011;42627;42.646;23.642;2023-03-19T13:47:01;4.78;;;1.67;;
56752;SDS011;42627;42.646;23.642;2023-03-19T13:58:17;3.15;;;1.30;;
56752;SDS011;42627;42.646;23.642;2023-03-19T14:02:43;2.33;;;1.20;;
56752;SDS011;42627;42.646;23.642;2023-03-19T14:06:48;3.33;;;1.27;;
56752;SDS011;42627;42.646;23.642;2023-03-19T14:08:50;2.72;;;1.30;;
56752;SDS011;42627;42.646;23.642;2023-03-19T14:10:52;3.85;;;1.48;;
56752;SDS011;42627;42.646;23.642;2023-03-19T14:13:01;2.25;;;1.20;;
56752;SDS011;42627;42.646;23.642;2023-03-19T14:17:12;2.75;;;1.30;;
56752;SDS011;42627;42.646;23.642;2023-03-19T14:19:15;5.03;;;1.83;;
56752;SDS011;42627;42.646;23.642;2023-03-19T14:26:40;2.28;;;1.33;;
56752;SDS011;42627;42.646;23.642;2023-03-19T14:28:53;3.15;;;1.67;;
56752;SDS011;42627;42.646;23.642;2023-03-19T14:30:55;3.42;;;1.50;;
56752;SDS011;42627;42.646;23.642;2023-03-19T14:32:56;2.58;;;1.02;;
56752;SDS011;42627;42.646;23.642;2023-03-19T14:35:00;3.60;;;1.45;;
56752;SDS011;42627;42.646;23.642;2023-03-19T14:39:18;20.73;;;10.35;;
56752;SDS011;42627;42.646;23.642;2023-03-19T14:41:27;6.07;;;2.13;;
56752;SDS011;42627;42.646;23.642;2023-03-19T14:43:41;4.32;;;1.40;;
56752;SDS011;42627;42.646;23.642;2023-03-19T14:45:56;5.45;;;2.42;;
56752;SDS011;42627;42.646;23.642;2023-03-19T14:48:12;7.90;;;2.88;;
56752;SDS011;42627;42.646;23.642;2023-03-19T14:55:08;1.58;;;1.00;;
56752;SDS011;42627;42.646;23.642;2023-03-19T14:57:46;4.93;;;2.17;;
56752;SDS011;42627;42.646;23.642;2023-03-19T14:59:47;3.03;;;1.50;;
56752;SDS011;42627;42.646;23.642;2023-03-19T15:01:51;3.33;;;1.10;;
56752;SDS011;42627;42.646;23.642;2023-03-19T15:03:53;2.47;;;0.90;;
56752;SDS011;42627;42.646;23.642;2023-03-19T15:05:55;1.92;;;0.98;;
56752;SDS011;42627;42.646;23.642;2023-03-19T15:08:01;1.35;;;0.80;;
56752;SDS011;42627;42.646;23.642;2023-03-19T15:10:03;2.20;;;1.00;;
56752;SDS011;42627;42.646;23.642;2023-03-19T15:16:59;6.90;;;3.22;;
56752;SDS011;42627;42.646;23.642;2023-03-19T15:21:24;3.67;;;2.08;;
56752;SDS011;42627;42.646;23.642;2023-03-19T15:23:38;7.18;;;3.90;;
56752;SDS011;42627;42.646;23.642;2023-03-19T15:26:49;15.50;;;7.45;;
56752;SDS011;42627;42.646;23.642;2023-03-19T15:28:45;14.20;;;6.32;;
56752;SDS011;42627;42.646;23.642;2023-03-19T15:30:53;8.15;;;4.10;;
56752;SDS011;42627;42.646;23.642;2023-03-19T15:32:55;2.25;;;0.95;;
56752;SDS011;42627;42.646;23.642;2023-03-19T15:34:57;2.53;;;1.02;;
56752;SDS011;42627;42.646;23.642;2023-03-19T15:37:04;1.25;;;0.65;;
56752;SDS011;42627;42.646;23.642;2023-03-19T15:39:10;2.50;;;1.00;;
56752;SDS011;42627;42.646;23.642;2023-03-19T15:43:22;4.70;;;1.55;;
56752;SDS011;42627;42.646;23.642;2023-03-19T15:45:27;3.60;;;1.35;;
56752;SDS011;42627;42.646;23.642;2023-03-19T15:49:36;4.07;;;1.90;;
56752;SDS011;42627;42.646;23.642;2023-03-19T15:56:43;2.47;;;1.40;;
56752;SDS011;42627;42.646;23.642;2023-03-19T15:58:45;4.13;;;1.73;;
56752;SDS011;42627;42.646;23.642;2023-03-19T16:00:46;3.75;;;1.75;;
56752;SDS011;42627;42.646;23.642;2023-03-19T16:02:52;14.90;;;6.43;;
56752;SDS011;42627;42.646;23.642;2023-03-19T16:04:54;7.78;;;3.80;;
56752;SDS011;42627;42.646;23.642;2023-03-19T16:06:55;14.55;;;6.18;;
56752;SDS011;42627;42.646;23.642;2023-03-19T16:11:42;5.72;;;3.10;;
56752;SDS011;42627;42.646;23.642;2023-03-19T16:13:59;6.07;;;1.85;;
56752;SDS011;42627;42.646;23.642;2023-03-19T16:23:30;3.95;;;1.73;;
56752;SDS011;42627;42.646;23.642;2023-03-19T16:31:18;4.68;;;2.35;;
56752;SDS011;42627;42.646;23.642;2023-03-19T16:33:25;5.57;;;2.40;;
56752;SDS011;42627;42.646;23.642;2023-03-19T16:35:28;5.70;;;3.03;;
56752;SDS011;42627;42.646;23.642;2023-03-19T16:37:45;6.50;;;3.08;;
56752;SDS011;42627;42.646;23.642;2023-03-19T16:44:16;7.60;;;3.63;;
56752;SDS011;42627;42.646;23.642;2023-03-19T16:46:18;11.05;;;4.82;;
56752;SDS011;42627;42.646;23.642;2023-03-19T16:48:18;13.02;;;5.60;;
56752;SDS011;42627;42.646;23.642;2023-03-19T16:50:29;17.45;;;7.03;;
56752;SDS011;42627;42.646;23.642;2023-03-19T16:52:32;18.70;;;7.78;;
56752;SDS011;42627;42.646;23.642;2023-03-19T16:54:33;21.88;;;8.70;;